AirNav   ProFlight Series 2 Aviation Headset
 
 574 users online  

0AK9 Falcon Lake Strip Airport
Point MacKenzie, Alaska, USA

GOING TO POINT MACKENZIE?


FAA INFORMATION EFFECTIVE 18 JUNE 2020

Location

FAA Identifier: 0AK9
Lat/Long: 61-19-57.1800N 150-03-32.5900W
61-19.953000N 150-03.543167W
61.3325500,-150.0590528
(estimated)
Elevation: 110 ft. / 34 m
Time zone: UTC -8 (UTC -9 during Standard Time)
Zip code: 99687

Airport Operations

Airport use: Private use. Permission required prior to landing
Activation date: 04/2004
Control tower: no
ARTCC: ANCHORAGE CENTER
FSS: KENAI FLIGHT SERVICE STATION [907-283-7211]
Attendance: UNATNDD
Segmented circle: no

Airport Communications

CTAF: 122.9
WX ASOS at LHD (9 nm S): PHONE 907-245-5432
WX ASOS at MRI (9 nm SE): 124.25 (907-271-5277)
WX ASOS at ANC (10 nm S): PHONE 907-271-5278
WX ASOS at FRN (12 nm E): 134.25
WX AWOS-3P at BCV (17 nm E): 135.55 (907-688-0826)

Nearby radio navigation aids

VOR radial/distance  VOR name  Freq  Var
TEDr326/10.3ANCHORAGE VOR/DME113.1518E
BGQr172/14.5BIG LAKE VORTAC112.5019E

 
NDB name  Hdg/Dist  Freq  Var  ID
CAMPBELL LAKE342/9.733816ECMQ -.-. -- --.-

Airport Services

Runway Information

Runway 17/35

Dimensions: 2000 x 30 ft. / 610 x 9 m
Surface: gravel
RUNWAY 17  RUNWAY 35
Traffic pattern: leftleft

Airport Ownership and Management from official FAA records

Ownership: Privately-owned
Owner: RICHARD W. GATTIS
1650 W SHORELINE DR
WASILLA, AK 99654
Phone 907-373-0300
CELL # 907-841-0507
Manager: RICHARD W. GATTIS
1650 W SHORELINE DR
WASILLA, AK 99654
Phone 907-373-0300

Airport Operational Statistics

Aircraft based on the field: 2
Single engine airplanes: 2
    

Instrument Procedures

There are no published instrument procedures at 0AK9.

Some nearby airports with instrument procedures:

PAED - Elmendorf Air Force Base (9 nm SE)
PAMR - Merrill Field Airport (9 nm SE)
PANC - Ted Stevens Anchorage International Airport (10 nm S)
PAFR - Bryant Army Airfield Heliport (12 nm E)
PAGQ - Big Lake Airport (14 nm NE)
 
Loc | Ops | Rwys | IFR | FBO | Links
Com | Nav | Svcs | Stats | Notes

Crowley
 
Area around 0AK9 (Falcon Lake Strip Airport)
 
Road maps at: MapQuest Bing Google
 
Aerial photo
WARNING: Photo may not be current or correct
Aerial photo of 0AK9 (Falcon Lake Strip Airport)
Do you have a better or more recent aerial photo of Falcon Lake Strip Airport that you would like to share? If so, please send us your photo.

 
Sectional chart

 
Airport distance calculator
Flying to Falcon Lake Strip Airport? Find the distance to fly.

From to 0AK9

Sunrise and sunset
Times for 11-Jul-2020
 Local
(UTC-8)
 Zulu
(UTC)
Morning civil twilight03:0211:02
Sunrise04:4612:46
Sunset23:2607:26
Evening civil twilight01:0909:09

Current date and time
Zulu (UTC)  11-Jul-2020 12:00:37
Local (UTC-8)  11-Jul-2020 04:00:37
 
METAR
PAED 
9nm SE 
111056Z 06004KT 10SM BKN045 14/11 A2976 RMK AO2A SLP073 T01440112 $
PAMR 
9nm SE 
111153Z 07004KT 10SM FEW041 BKN065 15/10 A2975 RMK AO2 SLP074 T01500100 10183 20150 50002
PALH 
9nm S 
111153Z 00000KT 10SM SCT047 BKN055 14/12 A2976 RMK AO2 SLP078 T01440117 10183 20144 50001
PANC 
10nm S 
111153Z 15007KT 060V170 10SM BKN038 OVC055 14/11 A2975 RMK AO2 SLP075 T01440111 10183 20144 50002
PAFR 
12nm E 
111128Z AUTO 00000KT 10SM OVC038 13/12 A2974 RMK AO2 SLP076
PABV 
16nm E 
111056Z AUTO 00000KT 10SM RA OVC039 13/12 A2978 RMK AO2 RAB44 SLP089 P0000 T01280117
TAF
PAED 
9nm SE 
111000Z 1110/1216 VRB05KT 9999 FEW010 BKN030 QNH2972INS BECMG 1119/1120 24009KT 9999 VCSH BKN050 QNH2970INS BECMG 1201/1202 25009KT 8000 -SHRA BKN040 QNH2970INS BECMG 1207/1208 VRB04KT 9999 VCSH BKN040 QNH2972INS TX20/1202Z TN13/1113Z
PANC 
10nm S 
111133Z 1112/1218 18004KT P6SM VCSH BKN050 BKN110 TEMPO 1112/1116 SCT050 BKN110 FM112100 17009KT P6SM VCSH BKN070 FM120300 17015G22KT P6SM -SHRA SCT035 OVC050
NOTAMs
Click for the latest NOTAMs
NOTAMs are issued by the DoD/FAA and will open in a separate window not controlled by AirNav.

 

 
 

Would you like to see your business listed on this page?

 If your business provides an interesting product or service to pilots, flight crews, aircraft, or users of the Falcon Lake Strip Airport, you should consider listing it here.  To start the listing process, click on the button below
 
Add a business
 

Other Pages about Falcon Lake Strip Airport

Update a link
 
Copyright © AirNav, LLC. All rights reserved. Privacy Policy  Contact